sensor_id;sensor_type;location;lat;lon;timestamp;P1;durP1;ratioP1;P2;durP2;ratioP2
72949;SDS011;62720;45.710;9.590;2022-10-15T00:01:12;48.05;;;30.10;;
72949;SDS011;62720;45.710;9.590;2022-10-15T00:03:46;45.67;;;28.13;;
72949;SDS011;62720;45.710;9.590;2022-10-15T00:06:20;45.45;;;27.08;;
72949;SDS011;62720;45.710;9.590;2022-10-15T00:08:58;52.25;;;29.83;;
72949;SDS011;62720;45.710;9.590;2022-10-15T00:11:43;46.75;;;27.92;;
72949;SDS011;62720;45.710;9.590;2022-10-15T00:14:17;51.08;;;29.33;;
72949;SDS011;62720;45.710;9.590;2022-10-15T00:16:53;52.08;;;29.13;;
72949;SDS011;62720;45.710;9.590;2022-10-15T00:19:24;46.95;;;29.10;;
72949;SDS011;62720;45.710;9.590;2022-10-15T00:22:01;51.00;;;30.30;;
72949;SDS011;62720;45.710;9.590;2022-10-15T00:30:25;57.80;;;31.73;;
72949;SDS011;62720;45.710;9.590;2022-10-15T00:32:51;50.40;;;30.17;;
72949;SDS011;62720;45.710;9.590;2022-10-15T00:35:40;54.45;;;31.88;;
72949;SDS011;62720;45.710;9.590;2022-10-15T00:38:16;55.08;;;30.02;;
72949;SDS011;62720;45.710;9.590;2022-10-15T00:40:54;55.28;;;31.30;;
72949;SDS011;62720;45.710;9.590;2022-10-15T00:43:41;48.30;;;28.80;;
72949;SDS011;62720;45.710;9.590;2022-10-15T00:46:24;59.22;;;31.45;;
72949;SDS011;62720;45.710;9.590;2022-10-15T00:49:01;57.13;;;31.95;;
72949;SDS011;62720;45.710;9.590;2022-10-15T00:51:55;55.85;;;31.45;;
72949;SDS011;62720;45.710;9.590;2022-10-15T00:54:29;55.75;;;32.30;;
72949;SDS011;62720;45.710;9.590;2022-10-15T00:57:00;56.05;;;31.15;;
72949;SDS011;62720;45.710;9.590;2022-10-15T00:59:40;49.35;;;29.52;;
72949;SDS011;62720;45.710;9.590;2022-10-15T01:02:29;52.35;;;29.15;;
72949;SDS011;62720;45.710;9.590;2022-10-15T01:05:00;52.95;;;30.90;;
72949;SDS011;62720;45.710;9.590;2022-10-15T01:07:47;53.78;;;30.55;;
72949;SDS011;62720;45.710;9.590;2022-10-15T01:10:39;52.75;;;29.88;;
72949;SDS011;62720;45.710;9.590;2022-10-15T01:15:53;49.10;;;29.77;;
72949;SDS011;62720;45.710;9.590;2022-10-15T01:21:20;47.63;;;26.80;;
72949;SDS011;62720;45.710;9.590;2022-10-15T01:32:45;50.13;;;27.63;;
72949;SDS011;62720;45.710;9.590;2022-10-15T01:48:40;45.53;;;26.65;;
72949;SDS011;62720;45.710;9.590;2022-10-15T01:51:06;52.53;;;30.90;;
72949;SDS011;62720;45.710;9.590;2022-10-15T01:53:32;51.08;;;28.58;;
72949;SDS011;62720;45.710;9.590;2022-10-15T01:55:59;46.08;;;28.70;;
72949;SDS011;62720;45.710;9.590;2022-10-15T01:58:25;50.83;;;29.05;;
72949;SDS011;62720;45.710;9.590;2022-10-15T02:00:52;49.70;;;28.60;;
72949;SDS011;62720;45.710;9.590;2022-10-15T02:03:18;50.38;;;27.55;;
72949;SDS011;62720;45.710;9.590;2022-10-15T02:05:49;52.85;;;29.55;;
72949;SDS011;62720;45.710;9.590;2022-10-15T02:13:16;50.47;;;30.58;;
72949;SDS011;62720;45.710;9.590;2022-10-15T02:31:19;50.28;;;28.77;;
72949;SDS011;62720;45.710;9.590;2022-10-15T02:43:49;52.97;;;28.75;;
72949;SDS011;62720;45.710;9.590;2022-10-15T02:47:07;54.10;;;30.38;;
72949;SDS011;62720;45.710;9.590;2022-10-15T02:52:35;49.10;;;28.17;;
72949;SDS011;62720;45.710;9.590;2022-10-15T02:55:03;54.65;;;30.65;;
72949;SDS011;62720;45.710;9.590;2022-10-15T02:57:41;50.65;;;29.02;;
72949;SDS011;62720;45.710;9.590;2022-10-15T03:00:22;55.13;;;29.98;;
72949;SDS011;62720;45.710;9.590;2022-10-15T03:05:53;58.72;;;30.42;;
72949;SDS011;62720;45.710;9.590;2022-10-15T03:08:19;50.15;;;28.90;;
72949;SDS011;62720;45.710;9.590;2022-10-15T03:10:50;52.65;;;30.05;;
72949;SDS011;62720;45.710;9.590;2022-10-15T03:13:18;55.30;;;29.38;;
72949;SDS011;62720;45.710;9.590;2022-10-15T03:15:52;60.28;;;31.63;;
72949;SDS011;62720;45.710;9.590;2022-10-15T03:18:25;53.13;;;29.77;;
72949;SDS011;62720;45.710;9.590;2022-10-15T03:21:06;51.13;;;28.40;;
72949;SDS011;62720;45.710;9.590;2022-10-15T03:23:44;56.25;;;31.73;;
72949;SDS011;62720;45.710;9.590;2022-10-15T03:26:12;52.42;;;30.02;;
72949;SDS011;62720;45.710;9.590;2022-10-15T03:28:39;46.85;;;26.38;;
72949;SDS011;62720;45.710;9.590;2022-10-15T03:31:15;47.67;;;26.98;;
72949;SDS011;62720;45.710;9.590;2022-10-15T03:33:46;50.75;;;27.63;;
72949;SDS011;62720;45.710;9.590;2022-10-15T03:36:14;47.25;;;26.92;;
72949;SDS011;62720;45.710;9.590;2022-10-15T03:38:40;52.92;;;27.58;;
72949;SDS011;62720;45.710;9.590;2022-10-15T03:41:10;49.22;;;28.42;;
72949;SDS011;62720;45.710;9.590;2022-10-15T03:44:00;57.78;;;31.70;;
72949;SDS011;62720;45.710;9.590;2022-10-15T03:46:31;60.00;;;32.30;;
72949;SDS011;62720;45.710;9.590;2022-10-15T03:48:56;58.63;;;31.42;;
72949;SDS011;62720;45.710;9.590;2022-10-15T03:51:27;67.03;;;30.85;;
72949;SDS011;62720;45.710;9.590;2022-10-15T03:53:58;51.08;;;28.33;;
72949;SDS011;62720;45.710;9.590;2022-10-15T03:56:26;58.95;;;31.67;;
72949;SDS011;62720;45.710;9.590;2022-10-15T03:58:57;57.80;;;30.52;;
72949;SDS011;62720;45.710;9.590;2022-10-15T04:01:30;54.33;;;30.77;;
72949;SDS011;62720;45.710;9.590;2022-10-15T04:03:56;49.45;;;27.63;;
72949;SDS011;62720;45.710;9.590;2022-10-15T04:06:21;53.78;;;29.63;;
72949;SDS011;62720;45.710;9.590;2022-10-15T04:08:47;51.08;;;29.90;;
72949;SDS011;62720;45.710;9.590;2022-10-15T04:11:42;60.72;;;31.20;;
72949;SDS011;62720;45.710;9.590;2022-10-15T04:14:13;57.55;;;31.90;;
72949;SDS011;62720;45.710;9.590;2022-10-15T04:16:49;61.45;;;32.13;;
72949;SDS011;62720;45.710;9.590;2022-10-15T04:19:35;62.35;;;33.05;;
72949;SDS011;62720;45.710;9.590;2022-10-15T04:22:01;59.30;;;31.95;;
72949;SDS011;62720;45.710;9.590;2022-10-15T04:24:32;64.43;;;32.95;;
72949;SDS011;62720;45.710;9.590;2022-10-15T04:27:11;55.00;;;30.88;;
72949;SDS011;62720;45.710;9.590;2022-10-15T04:29:40;61.65;;;33.20;;
72949;SDS011;62720;45.710;9.590;2022-10-15T04:32:10;63.60;;;32.97;;
72949;SDS011;62720;45.710;9.590;2022-10-15T04:34:39;62.78;;;32.65;;
72949;SDS011;62720;45.710;9.590;2022-10-15T04:37:23;61.38;;;32.70;;
72949;SDS011;62720;45.710;9.590;2022-10-15T04:39:51;54.90;;;31.20;;
72949;SDS011;62720;45.710;9.590;2022-10-15T04:54:44;52.65;;;28.73;;
72949;SDS011;62720;45.710;9.590;2022-10-15T05:06:57;51.85;;;28.83;;
72949;SDS011;62720;45.710;9.590;2022-10-15T05:09:22;51.78;;;27.20;;
72949;SDS011;62720;45.710;9.590;2022-10-15T05:11:47;52.97;;;29.55;;
72949;SDS011;62720;45.710;9.590;2022-10-15T05:14:13;58.38;;;30.27;;
72949;SDS011;62720;45.710;9.590;2022-10-15T05:16:39;51.33;;;29.63;;
72949;SDS011;62720;45.710;9.590;2022-10-15T05:19:04;56.95;;;29.10;;
72949;SDS011;62720;45.710;9.590;2022-10-15T05:21:30;56.65;;;30.17;;
72949;SDS011;62720;45.710;9.590;2022-10-15T05:23:56;50.78;;;28.73;;
72949;SDS011;62720;45.710;9.590;2022-10-15T05:26:22;49.83;;;27.05;;
72949;SDS011;62720;45.710;9.590;2022-10-15T05:28:48;53.95;;;30.08;;
72949;SDS011;62720;45.710;9.590;2022-10-15T05:31:17;59.33;;;31.77;;
72949;SDS011;62720;45.710;9.590;2022-10-15T05:33:43;53.92;;;30.27;;
72949;SDS011;62720;45.710;9.590;2022-10-15T05:36:18;55.77;;;29.47;;
72949;SDS011;62720;45.710;9.590;2022-10-15T05:38:45;61.88;;;30.50;;
72949;SDS011;62720;45.710;9.590;2022-10-15T05:41:10;56.92;;;29.73;;
72949;SDS011;62720;45.710;9.590;2022-10-15T05:43:35;54.42;;;29.63;;
72949;SDS011;62720;45.710;9.590;2022-10-15T05:46:01;65.00;;;29.10;;
72949;SDS011;62720;45.710;9.590;2022-10-15T05:48:26;62.13;;;32.13;;
72949;SDS011;62720;45.710;9.590;2022-10-15T05:50:51;67.60;;;33.30;;
72949;SDS011;62720;45.710;9.590;2022-10-15T05:53:17;68.72;;;34.50;;
72949;SDS011;62720;45.710;9.590;2022-10-15T05:55:42;63.40;;;33.90;;
72949;SDS011;62720;45.710;9.590;2022-10-15T05:58:07;71.53;;;35.00;;
72949;SDS011;62720;45.710;9.590;2022-10-15T06:00:33;64.57;;;33.80;;
72949;SDS011;62720;45.710;9.590;2022-10-15T06:02:58;63.10;;;32.40;;
72949;SDS011;62720;45.710;9.590;2022-10-15T06:05:23;56.93;;;31.43;;
72949;SDS011;62720;45.710;9.590;2022-10-15T06:07:49;57.35;;;31.00;;
72949;SDS011;62720;45.710;9.590;2022-10-15T06:10:14;60.15;;;32.78;;
72949;SDS011;62720;45.710;9.590;2022-10-15T06:12:39;58.67;;;31.52;;
72949;SDS011;62720;45.710;9.590;2022-10-15T06:15:05;60.83;;;31.77;;
72949;SDS011;62720;45.710;9.590;2022-10-15T06:17:30;63.15;;;33.10;;
72949;SDS011;62720;45.710;9.590;2022-10-15T06:19:55;57.73;;;31.20;;
72949;SDS011;62720;45.710;9.590;2022-10-15T06:22:21;53.80;;;29.17;;
72949;SDS011;62720;45.710;9.590;2022-10-15T06:24:46;53.85;;;29.45;;
72949;SDS011;62720;45.710;9.590;2022-10-15T06:27:11;62.75;;;32.45;;
72949;SDS011;62720;45.710;9.590;2022-10-15T06:29:37;59.63;;;32.25;;
72949;SDS011;62720;45.710;9.590;2022-10-15T06:32:03;58.47;;;31.88;;
72949;SDS011;62720;45.710;9.590;2022-10-15T06:34:28;65.43;;;33.95;;
72949;SDS011;62720;45.710;9.590;2022-10-15T06:36:53;57.65;;;30.73;;
72949;SDS011;62720;45.710;9.590;2022-10-15T06:39:19;55.60;;;31.20;;
72949;SDS011;62720;45.710;9.590;2022-10-15T06:41:44;61.53;;;31.77;;
72949;SDS011;62720;45.710;9.590;2022-10-15T06:44:09;56.20;;;31.17;;
72949;SDS011;62720;45.710;9.590;2022-10-15T06:46:35;60.70;;;32.47;;
72949;SDS011;62720;45.710;9.590;2022-10-15T06:49:00;54.58;;;29.83;;
72949;SDS011;62720;45.710;9.590;2022-10-15T06:51:26;57.05;;;31.58;;
72949;SDS011;62720;45.710;9.590;2022-10-15T06:53:51;47.72;;;26.63;;
72949;SDS011;62720;45.710;9.590;2022-10-15T06:56:16;49.30;;;26.77;;
72949;SDS011;62720;45.710;9.590;2022-10-15T06:58:41;51.95;;;28.17;;
72949;SDS011;62720;45.710;9.590;2022-10-15T07:01:10;45.58;;;25.55;;
72949;SDS011;62720;45.710;9.590;2022-10-15T07:03:35;47.03;;;26.45;;
72949;SDS011;62720;45.710;9.590;2022-10-15T07:06:03;50.13;;;26.77;;
72949;SDS011;62720;45.710;9.590;2022-10-15T07:08:29;51.45;;;27.92;;
72949;SDS011;62720;45.710;9.590;2022-10-15T07:10:54;47.67;;;26.33;;
72949;SDS011;62720;45.710;9.590;2022-10-15T07:13:19;45.70;;;27.37;;
72949;SDS011;62720;45.710;9.590;2022-10-15T07:15:44;51.13;;;27.73;;
72949;SDS011;62720;45.710;9.590;2022-10-15T07:18:11;50.33;;;27.85;;
72949;SDS011;62720;45.710;9.590;2022-10-15T07:20:36;48.60;;;27.08;;
72949;SDS011;62720;45.710;9.590;2022-10-15T07:23:01;49.00;;;26.13;;
72949;SDS011;62720;45.710;9.590;2022-10-15T07:25:27;44.17;;;26.52;;
72949;SDS011;62720;45.710;9.590;2022-10-15T07:27:53;43.10;;;24.35;;
72949;SDS011;62720;45.710;9.590;2022-10-15T07:30:19;43.95;;;25.27;;
72949;SDS011;62720;45.710;9.590;2022-10-15T07:32:44;45.83;;;25.88;;
72949;SDS011;62720;45.710;9.590;2022-10-15T07:35:09;46.60;;;26.15;;
72949;SDS011;62720;45.710;9.590;2022-10-15T07:37:35;47.03;;;25.37;;
72949;SDS011;62720;45.710;9.590;2022-10-15T07:40:00;47.97;;;27.57;;
72949;SDS011;62720;45.710;9.590;2022-10-15T07:42:26;48.53;;;26.70;;
72949;SDS011;62720;45.710;9.590;2022-10-15T07:44:51;44.70;;;25.67;;
72949;SDS011;62720;45.710;9.590;2022-10-15T07:47:16;43.67;;;25.65;;
72949;SDS011;62720;45.710;9.590;2022-10-15T07:49:41;48.20;;;25.30;;
72949;SDS011;62720;45.710;9.590;2022-10-15T07:52:07;44.03;;;24.52;;
72949;SDS011;62720;45.710;9.590;2022-10-15T07:54:32;39.78;;;25.08;;
72949;SDS011;62720;45.710;9.590;2022-10-15T07:56:58;42.50;;;24.45;;
72949;SDS011;62720;45.710;9.590;2022-10-15T07:59:23;42.90;;;25.95;;
72949;SDS011;62720;45.710;9.590;2022-10-15T08:01:48;45.40;;;24.57;;
72949;SDS011;62720;45.710;9.590;2022-10-15T08:04:15;40.13;;;22.77;;
72949;SDS011;62720;45.710;9.590;2022-10-15T08:06:40;47.90;;;26.30;;
72949;SDS011;62720;45.710;9.590;2022-10-15T08:09:05;42.63;;;24.90;;
72949;SDS011;62720;45.710;9.590;2022-10-15T08:11:31;41.75;;;23.73;;
72949;SDS011;62720;45.710;9.590;2022-10-15T08:13:56;41.40;;;24.67;;
72949;SDS011;62720;45.710;9.590;2022-10-15T08:16:21;43.83;;;24.10;;
72949;SDS011;62720;45.710;9.590;2022-10-15T08:18:46;42.10;;;23.20;;
72949;SDS011;62720;45.710;9.590;2022-10-15T08:21:12;39.38;;;23.88;;
72949;SDS011;62720;45.710;9.590;2022-10-15T08:23:37;46.47;;;24.83;;
72949;SDS011;62720;45.710;9.590;2022-10-15T08:26:02;37.50;;;23.53;;
72949;SDS011;62720;45.710;9.590;2022-10-15T08:28:28;44.35;;;25.05;;
72949;SDS011;62720;45.710;9.590;2022-10-15T08:30:55;40.03;;;24.25;;
72949;SDS011;62720;45.710;9.590;2022-10-15T08:33:21;35.10;;;21.52;;
72949;SDS011;62720;45.710;9.590;2022-10-15T08:35:46;35.33;;;21.93;;
72949;SDS011;62720;45.710;9.590;2022-10-15T08:38:11;36.23;;;22.90;;
72949;SDS011;62720;45.710;9.590;2022-10-15T08:40:37;42.97;;;23.80;;
72949;SDS011;62720;45.710;9.590;2022-10-15T08:43:04;37.53;;;20.30;;
72949;SDS011;62720;45.710;9.590;2022-10-15T08:45:34;35.83;;;23.33;;
72949;SDS011;62720;45.710;9.590;2022-10-15T08:48:08;44.67;;;25.20;;
72949;SDS011;62720;45.710;9.590;2022-10-15T08:53:08;45.63;;;25.58;;
72949;SDS011;62720;45.710;9.590;2022-10-15T08:55:37;49.38;;;31.05;;
72949;SDS011;62720;45.710;9.590;2022-10-15T08:58:05;49.53;;;30.67;;
72949;SDS011;62720;45.710;9.590;2022-10-15T09:05:50;54.67;;;33.22;;
72949;SDS011;62720;45.710;9.590;2022-10-15T09:10:49;56.33;;;35.45;;
72949;SDS011;62720;45.710;9.590;2022-10-15T09:15:57;49.08;;;31.77;;
72949;SDS011;62720;45.710;9.590;2022-10-15T09:18:40;57.50;;;35.70;;
72949;SDS011;62720;45.710;9.590;2022-10-15T09:21:06;52.55;;;33.00;;
72949;SDS011;62720;45.710;9.590;2022-10-15T09:23:33;53.92;;;35.05;;
72949;SDS011;62720;45.710;9.590;2022-10-15T09:26:06;62.63;;;40.50;;
72949;SDS011;62720;45.710;9.590;2022-10-15T09:28:37;69.97;;;40.90;;
72949;SDS011;62720;45.710;9.590;2022-10-15T09:31:03;64.72;;;40.45;;
72949;SDS011;62720;45.710;9.590;2022-10-15T09:36:00;66.68;;;41.30;;
72949;SDS011;62720;45.710;9.590;2022-10-15T09:38:43;75.20;;;43.13;;
72949;SDS011;62720;45.710;9.590;2022-10-15T09:41:20;71.75;;;43.13;;
72949;SDS011;62720;45.710;9.590;2022-10-15T09:43:49;70.53;;;42.85;;
72949;SDS011;62720;45.710;9.590;2022-10-15T09:46:15;75.22;;;44.25;;
72949;SDS011;62720;45.710;9.590;2022-10-15T09:48:41;71.90;;;43.42;;
72949;SDS011;62720;45.710;9.590;2022-10-15T09:58:54;52.92;;;35.13;;
72949;SDS011;62720;45.710;9.590;2022-10-15T10:01:21;64.45;;;37.20;;
72949;SDS011;62720;45.710;9.590;2022-10-15T10:03:50;55.78;;;34.13;;
72949;SDS011;62720;45.710;9.590;2022-10-15T10:06:16;63.13;;;40.50;;
72949;SDS011;62720;45.710;9.590;2022-10-15T10:08:54;57.88;;;39.17;;
72949;SDS011;62720;45.710;9.590;2022-10-15T10:11:21;66.97;;;42.67;;
72949;SDS011;62720;45.710;9.590;2022-10-15T10:16:13;70.45;;;42.50;;
72949;SDS011;62720;45.710;9.590;2022-10-15T10:18:39;66.65;;;43.47;;
72949;SDS011;62720;45.710;9.590;2022-10-15T10:21:06;71.75;;;44.28;;
72949;SDS011;62720;45.710;9.590;2022-10-15T10:23:37;69.18;;;43.95;;
72949;SDS011;62720;45.710;9.590;2022-10-15T10:26:06;68.20;;;42.13;;
72949;SDS011;62720;45.710;9.590;2022-10-15T10:31:13;68.78;;;44.17;;
72949;SDS011;62720;45.710;9.590;2022-10-15T10:36:05;69.33;;;43.30;;
72949;SDS011;62720;45.710;9.590;2022-10-15T10:38:31;71.28;;;43.05;;
72949;SDS011;62720;45.710;9.590;2022-10-15T10:41:01;73.35;;;43.60;;
72949;SDS011;62720;45.710;9.590;2022-10-15T10:43:32;76.65;;;45.28;;
72949;SDS011;62720;45.710;9.590;2022-10-15T10:48:30;80.00;;;48.33;;
72949;SDS011;62720;45.710;9.590;2022-10-15T10:51:02;83.00;;;49.72;;
72949;SDS011;62720;45.710;9.590;2022-10-15T10:53:28;86.32;;;52.05;;
72949;SDS011;62720;45.710;9.590;2022-10-15T10:55:54;94.10;;;52.83;;
72949;SDS011;62720;45.710;9.590;2022-10-15T10:58:21;85.53;;;49.08;;
72949;SDS011;62720;45.710;9.590;2022-10-15T11:00:48;92.50;;;50.15;;
72949;SDS011;62720;45.710;9.590;2022-10-15T11:06:03;93.00;;;47.13;;
72949;SDS011;62720;45.710;9.590;2022-10-15T11:11:21;86.00;;;47.55;;
72949;SDS011;62720;45.710;9.590;2022-10-15T11:13:59;79.95;;;47.92;;
72949;SDS011;62720;45.710;9.590;2022-10-15T11:16:37;86.50;;;47.38;;
72949;SDS011;62720;45.710;9.590;2022-10-15T11:22:10;93.10;;;48.72;;
72949;SDS011;62720;45.710;9.590;2022-10-15T11:25:00;90.10;;;50.30;;
72949;SDS011;62720;45.710;9.590;2022-10-15T11:30:07;83.18;;;45.72;;
72949;SDS011;62720;45.710;9.590;2022-10-15T11:32:45;78.32;;;44.95;;
72949;SDS011;62720;45.710;9.590;2022-10-15T11:38:03;76.25;;;42.22;;
72949;SDS011;62720;45.710;9.590;2022-10-15T11:43:00;87.88;;;48.33;;
72949;SDS011;62720;45.710;9.590;2022-10-15T11:48:17;69.32;;;38.65;;
72949;SDS011;62720;45.710;9.590;2022-10-15T11:50:56;71.45;;;42.67;;
72949;SDS011;62720;45.710;9.590;2022-10-15T11:56:13;76.97;;;43.40;;
72949;SDS011;62720;45.710;9.590;2022-10-15T11:59:03;63.53;;;38.55;;
72949;SDS011;62720;45.710;9.590;2022-10-15T12:04:21;72.28;;;44.35;;
72949;SDS011;62720;45.710;9.590;2022-10-15T12:06:49;70.38;;;44.33;;
72949;SDS011;62720;45.710;9.590;2022-10-15T12:09:23;67.80;;;41.58;;
72949;SDS011;62720;45.710;9.590;2022-10-15T12:12:32;64.72;;;40.30;;
72949;SDS011;62720;45.710;9.590;2022-10-15T12:14:43;61.83;;;38.13;;
72949;SDS011;62720;45.710;9.590;2022-10-15T12:20:15;59.45;;;36.55;;
72949;SDS011;62720;45.710;9.590;2022-10-15T12:30:36;63.33;;;38.08;;
72949;SDS011;62720;45.710;9.590;2022-10-15T12:33:03;79.03;;;35.97;;
72949;SDS011;62720;45.710;9.590;2022-10-15T12:35:38;55.30;;;32.95;;
72949;SDS011;62720;45.710;9.590;2022-10-15T12:38:11;53.45;;;33.35;;
72949;SDS011;62720;45.710;9.590;2022-10-15T12:40:40;63.45;;;37.90;;
72949;SDS011;62720;45.710;9.590;2022-10-15T12:43:13;47.93;;;28.40;;
72949;SDS011;62720;45.710;9.590;2022-10-15T12:45:40;38.08;;;24.05;;
72949;SDS011;62720;45.710;9.590;2022-10-15T12:50:40;47.85;;;28.45;;
72949;SDS011;62720;45.710;9.590;2022-10-15T12:58:34;40.92;;;26.02;;
72949;SDS011;62720;45.710;9.590;2022-10-15T13:01:15;39.33;;;24.30;;
72949;SDS011;62720;45.710;9.590;2022-10-15T13:06:14;35.63;;;21.80;;
72949;SDS011;62720;45.710;9.590;2022-10-15T13:11:17;40.47;;;21.10;;
72949;SDS011;62720;45.710;9.590;2022-10-15T13:13:43;39.50;;;24.23;;
72949;SDS011;62720;45.710;9.590;2022-10-15T13:16:08;33.95;;;20.13;;
72949;SDS011;62720;45.710;9.590;2022-10-15T13:18:36;29.98;;;16.35;;
72949;SDS011;62720;45.710;9.590;2022-10-15T13:21:02;33.58;;;19.27;;
72949;SDS011;62720;45.710;9.590;2022-10-15T13:23:32;33.47;;;20.63;;
72949;SDS011;62720;45.710;9.590;2022-10-15T13:26:17;42.35;;;25.45;;
72949;SDS011;62720;45.710;9.590;2022-10-15T13:28:43;41.33;;;24.35;;
72949;SDS011;62720;45.710;9.590;2022-10-15T13:31:20;41.83;;;24.38;;
72949;SDS011;62720;45.710;9.590;2022-10-15T13:33:47;40.17;;;23.30;;
72949;SDS011;62720;45.710;9.590;2022-10-15T13:36:26;49.03;;;29.00;;
72949;SDS011;62720;45.710;9.590;2022-10-15T13:38:55;43.72;;;25.80;;
72949;SDS011;62720;45.710;9.590;2022-10-15T13:41:24;39.15;;;24.15;;
72949;SDS011;62720;45.710;9.590;2022-10-15T13:43:51;31.48;;;18.38;;
72949;SDS011;62720;45.710;9.590;2022-10-15T13:46:18;32.67;;;18.75;;
72949;SDS011;62720;45.710;9.590;2022-10-15T13:48:47;26.23;;;15.32;;
72949;SDS011;62720;45.710;9.590;2022-10-15T13:51:12;19.98;;;11.40;;
72949;SDS011;62720;45.710;9.590;2022-10-15T13:53:39;18.70;;;11.10;;
72949;SDS011;62720;45.710;9.590;2022-10-15T13:56:22;19.17;;;11.07;;
72949;SDS011;62720;45.710;9.590;2022-10-15T13:58:48;32.10;;;20.13;;
72949;SDS011;62720;45.710;9.590;2022-10-15T14:01:15;34.72;;;20.48;;
72949;SDS011;62720;45.710;9.590;2022-10-15T14:03:45;33.03;;;20.00;;
72949;SDS011;62720;45.710;9.590;2022-10-15T14:08:46;31.92;;;20.00;;
72949;SDS011;62720;45.710;9.590;2022-10-15T14:11:12;33.50;;;21.27;;
72949;SDS011;62720;45.710;9.590;2022-10-15T14:13:44;38.58;;;22.08;;
72949;SDS011;62720;45.710;9.590;2022-10-15T14:18:51;28.80;;;19.42;;
72949;SDS011;62720;45.710;9.590;2022-10-15T14:21:18;27.77;;;17.48;;
72949;SDS011;62720;45.710;9.590;2022-10-15T14:23:44;32.53;;;19.38;;
72949;SDS011;62720;45.710;9.590;2022-10-15T14:26:10;30.90;;;20.00;;
72949;SDS011;62720;45.710;9.590;2022-10-15T14:28:36;30.83;;;17.48;;
72949;SDS011;62720;45.710;9.590;2022-10-15T14:31:02;31.30;;;17.20;;
72949;SDS011;62720;45.710;9.590;2022-10-15T14:36:12;23.75;;;14.27;;
72949;SDS011;62720;45.710;9.590;2022-10-15T14:38:39;23.20;;;15.85;;
72949;SDS011;62720;45.710;9.590;2022-10-15T14:41:19;27.35;;;14.35;;
72949;SDS011;62720;45.710;9.590;2022-10-15T14:43:45;21.02;;;14.07;;
72949;SDS011;62720;45.710;9.590;2022-10-15T14:46:13;20.35;;;13.05;;
72949;SDS011;62720;45.710;9.590;2022-10-15T14:48:40;21.27;;;12.85;;
72949;SDS011;62720;45.710;9.590;2022-10-15T14:51:11;20.95;;;12.38;;
72949;SDS011;62720;45.710;9.590;2022-10-15T14:53:37;18.73;;;11.43;;
72949;SDS011;62720;45.710;9.590;2022-10-15T14:56:05;24.15;;;12.55;;
72949;SDS011;62720;45.710;9.590;2022-10-15T14:58:32;18.00;;;11.60;;
72949;SDS011;62720;45.710;9.590;2022-10-15T15:01:00;25.20;;;14.20;;
72949;SDS011;62720;45.710;9.590;2022-10-15T15:03:30;24.95;;;16.33;;
72949;SDS011;62720;45.710;9.590;2022-10-15T15:05:56;25.00;;;14.98;;
72949;SDS011;62720;45.710;9.590;2022-10-15T15:08:22;25.05;;;17.48;;
72949;SDS011;62720;45.710;9.590;2022-10-15T15:10:48;26.83;;;18.23;;
72949;SDS011;62720;45.710;9.590;2022-10-15T15:13:21;28.30;;;15.52;;
72949;SDS011;62720;45.710;9.590;2022-10-15T15:15:46;24.90;;;15.65;;
72949;SDS011;62720;45.710;9.590;2022-10-15T15:18:12;26.55;;;17.45;;
72949;SDS011;62720;45.710;9.590;2022-10-15T15:20:41;28.45;;;17.95;;
72949;SDS011;62720;45.710;9.590;2022-10-15T15:23:20;29.00;;;17.00;;
72949;SDS011;62720;45.710;9.590;2022-10-15T15:25:46;23.15;;;14.98;;
72949;SDS011;62720;45.710;9.590;2022-10-15T15:28:12;25.63;;;14.73;;
72949;SDS011;62720;45.710;9.590;2022-10-15T15:30:39;26.65;;;15.07;;
72949;SDS011;62720;45.710;9.590;2022-10-15T15:33:04;25.08;;;16.48;;
72949;SDS011;62720;45.710;9.590;2022-10-15T15:35:35;28.27;;;16.77;;
72949;SDS011;62720;45.710;9.590;2022-10-15T15:38:05;30.23;;;16.55;;
72949;SDS011;62720;45.710;9.590;2022-10-15T15:40:30;30.38;;;18.75;;
72949;SDS011;62720;45.710;9.590;2022-10-15T15:42:56;27.97;;;17.17;;
72949;SDS011;62720;45.710;9.590;2022-10-15T15:45:22;23.60;;;15.10;;
72949;SDS011;62720;45.710;9.590;2022-10-15T15:47:48;27.83;;;17.08;;
72949;SDS011;62720;45.710;9.590;2022-10-15T15:50:14;28.63;;;16.58;;
72949;SDS011;62720;45.710;9.590;2022-10-15T15:52:39;22.33;;;14.57;;
72949;SDS011;62720;45.710;9.590;2022-10-15T15:55:05;29.33;;;15.93;;
72949;SDS011;62720;45.710;9.590;2022-10-15T15:57:30;28.33;;;18.17;;
72949;SDS011;62720;45.710;9.590;2022-10-15T15:59:56;27.92;;;18.02;;
72949;SDS011;62720;45.710;9.590;2022-10-15T16:02:21;35.33;;;19.87;;
72949;SDS011;62720;45.710;9.590;2022-10-15T16:04:46;34.00;;;21.33;;
72949;SDS011;62720;45.710;9.590;2022-10-15T16:07:11;31.92;;;19.23;;
72949;SDS011;62720;45.710;9.590;2022-10-15T16:09:37;33.43;;;20.03;;
72949;SDS011;62720;45.710;9.590;2022-10-15T16:12:02;35.00;;;20.20;;
72949;SDS011;62720;45.710;9.590;2022-10-15T16:14:28;35.25;;;21.17;;
72949;SDS011;62720;45.710;9.590;2022-10-15T16:16:53;31.20;;;19.08;;
72949;SDS011;62720;45.710;9.590;2022-10-15T16:19:18;32.58;;;18.55;;
72949;SDS011;62720;45.710;9.590;2022-10-15T16:21:43;30.97;;;19.63;;
72949;SDS011;62720;45.710;9.590;2022-10-15T16:24:09;34.47;;;21.45;;
72949;SDS011;62720;45.710;9.590;2022-10-15T16:26:34;28.50;;;16.60;;
72949;SDS011;62720;45.710;9.590;2022-10-15T16:28:59;26.85;;;16.33;;
72949;SDS011;62720;45.710;9.590;2022-10-15T16:31:26;26.57;;;16.50;;
72949;SDS011;62720;45.710;9.590;2022-10-15T16:33:53;27.35;;;16.83;;
72949;SDS011;62720;45.710;9.590;2022-10-15T16:36:18;27.77;;;15.32;;
72949;SDS011;62720;45.710;9.590;2022-10-15T16:38:44;31.55;;;19.75;;
72949;SDS011;62720;45.710;9.590;2022-10-15T16:41:10;32.08;;;20.20;;
72949;SDS011;62720;45.710;9.590;2022-10-15T16:43:36;29.65;;;18.08;;
72949;SDS011;62720;45.710;9.590;2022-10-15T16:46:02;26.52;;;16.90;;
72949;SDS011;62720;45.710;9.590;2022-10-15T16:48:27;30.75;;;19.00;;
72949;SDS011;62720;45.710;9.590;2022-10-15T16:53:28;28.80;;;16.92;;
72949;SDS011;62720;45.710;9.590;2022-10-15T16:55:58;28.02;;;17.45;;
72949;SDS011;62720;45.710;9.590;2022-10-15T16:58:23;36.53;;;18.58;;
72949;SDS011;62720;45.710;9.590;2022-10-15T17:00:49;25.83;;;18.02;;
72949;SDS011;62720;45.710;9.590;2022-10-15T17:03:14;27.07;;;16.47;;
72949;SDS011;62720;45.710;9.590;2022-10-15T17:05:40;28.48;;;18.50;;
72949;SDS011;62720;45.710;9.590;2022-10-15T17:08:05;31.70;;;18.70;;
72949;SDS011;62720;45.710;9.590;2022-10-15T17:10:30;25.60;;;15.70;;
72949;SDS011;62720;45.710;9.590;2022-10-15T17:12:55;25.00;;;15.03;;
72949;SDS011;62720;45.710;9.590;2022-10-15T17:15:22;22.87;;;14.77;;
72949;SDS011;62720;45.710;9.590;2022-10-15T17:17:48;29.15;;;17.90;;
72949;SDS011;62720;45.710;9.590;2022-10-15T17:20:13;28.27;;;17.83;;
72949;SDS011;62720;45.710;9.590;2022-10-15T17:22:38;30.13;;;17.45;;
72949;SDS011;62720;45.710;9.590;2022-10-15T17:25:04;28.90;;;17.63;;
72949;SDS011;62720;45.710;9.590;2022-10-15T17:27:29;28.55;;;17.52;;
72949;SDS011;62720;45.710;9.590;2022-10-15T17:29:54;31.77;;;15.93;;
72949;SDS011;62720;45.710;9.590;2022-10-15T17:32:19;29.47;;;18.40;;
72949;SDS011;62720;45.710;9.590;2022-10-15T17:34:45;30.97;;;17.27;;
72949;SDS011;62720;45.710;9.590;2022-10-15T17:37:10;29.37;;;16.80;;